Flight Track Log - Related Links

Times and Time Zones

All times are in EDT time to prevent confusion due to time zone crossing. See the CES2524 flight status page for this flight to view local times or setup timezone preferences in your user account.

Time Position Orientation Groundspeed Altitude Reporting Facility
EDT Latitude Longitude Course Direction KTS MPH feet Rate Location/Type
Thu 01:55:00 AM 20.5432 108.7761 345° North  Level Estimated
Thu 01:56:00 AM 20.6328 108.7503 345° North  Level Estimated
Thu 01:57:00 AM 20.7223 108.7245 345° North  Level Estimated
Thu 01:58:00 AM 20.8119 108.6986 345° North  Level Estimated
Thu 01:59:00 AM 20.9015 108.6727 345° North  Level Estimated
Thu 02:00:00 AM 20.9910 108.6467 345° North  Level Estimated
Thu 02:01:00 AM 21.0806 108.6208 345° North  Level Estimated
Thu 02:02:00 AM 21.1701 108.5947 345° North  Level Estimated
Thu 02:03:00 AM 21.2596 108.5687 345° North  Level Estimated
Thu 02:04:00 AM 21.3492 108.5426 345° North  Level Estimated
Thu 02:05:00 AM 21.4387 108.5165 345° North  Level Estimated
Thu 02:06:00 AM 21.5282 108.4904 345° North  Level Estimated
Thu 02:07:00 AM 21.6178 108.4642 345° North  Level Estimated
Thu 02:08:00 AM 21.7073 108.4380 345° North  Level Estimated
Thu 02:09:00 AM 21.7968 108.4118 345° North  Level Estimated
Thu 02:10:00 AM 21.8863 108.3855 345° North  Level Estimated
Thu 02:11:00 AM 21.9758 108.3593 345° North  Level Estimated
Thu 02:12:00 AM 22.0653 108.3329 345° North  Level Estimated
Thu 02:13:00 AM 22.1548 108.3066 345° North  Level Estimated
Thu 02:14:00 AM 22.2443 108.2802 345° North  Level Estimated
Thu 02:15:00 AM 22.3338 108.2537 345° North  Level Estimated
Thu 02:16:00 AM 22.4233 108.2273 345° North  Level Estimated
Thu 02:17:00 AM 22.5128 108.2008 345° North  Level Estimated
Thu 02:18:00 AM 22.6022 108.1742 345° North  Level Estimated
Thu 02:19:00 AM 22.6083 108.1724 345° North  Level Estimated
Thu 02:20:00 AM 22.6083 108.1724 North  Level Estimated
Thu 02:21:00 AM 22.6083 108.1724 North  Level Estimated
Thu 02:22:00 AM 22.6083 108.1724 North  Level Estimated
Thu 02:23:00 AM 22.6083 108.1724 North  Level Estimated
Thu 02:24:00 AM 22.6083 108.1724 North  Level Estimated
Thu 02:25:00 AM 22.6083 108.1724 North  Level Estimated
Thu 02:26:00 AM 22.6083 108.1724 North  Level Estimated
Thu 02:27:00 AM 22.6083 108.1724 North  Level Estimated
Thu 02:28:00 AM 22.6083 108.1724 North  Level Estimated
Thu 02:29:00 AM 22.6083 108.1724 North  Level Estimated
Thu 02:30:00 AM 22.6083 108.1724 North  Level Estimated
Thu 02:31:00 AM 22.6083 108.1724 North  Level Estimated
Thu 02:32:00 AM 22.6083 108.1724 North  Level Estimated
Thu 02:33:00 AM 22.6083 108.1724 North  Level Estimated
Thu 02:34:00 AM 22.6083 108.1724 North  Level Estimated

Login

Don't have an account? Register now (free) for customized features, flight alerts, and more!